createdAt,value
2022-11-22T00:00:07.987Z,82.41
2022-11-22T00:02:09.516Z,82.61
2022-11-22T00:04:10.982Z,82.12
2022-11-22T00:06:12.424Z,82.10
2022-11-22T00:08:13.993Z,82.60
2022-11-22T00:10:15.963Z,83.29
2022-11-22T00:12:17.583Z,82.51
2022-11-22T00:14:19.037Z,82.83
2022-11-22T00:16:20.468Z,81.86
2022-11-22T00:18:21.910Z,81.75
2022-11-22T00:20:23.406Z,81.14
2022-11-22T00:22:24.941Z,80.95
2022-11-22T00:24:26.357Z,80.72
2022-11-22T00:26:27.862Z,80.99
2022-11-22T00:28:29.332Z,81.70
2022-11-22T00:30:30.765Z,81.36
2022-11-22T00:32:32.327Z,82.04
2022-11-22T00:34:33.849Z,82.00
2022-11-22T00:36:35.327Z,81.73
2022-11-22T00:38:36.859Z,81.84
2022-11-22T00:40:38.288Z,81.97
2022-11-22T00:42:39.752Z,81.87
2022-11-22T00:44:41.191Z,81.86
2022-11-22T00:46:42.797Z,82.02
2022-11-22T00:48:44.292Z,82.13
2022-11-22T00:50:49.012Z,82.24
2022-11-22T00:52:50.466Z,82.74
2022-11-22T00:54:54.971Z,82.17
2022-11-22T00:56:56.745Z,81.54
2022-11-22T00:58:58.267Z,80.76
2022-11-22T01:00:59.787Z,81.37
2022-11-22T01:03:01.251Z,81.09
2022-11-22T01:05:03.313Z,80.53
2022-11-22T01:07:04.901Z,79.90
2022-11-22T01:09:06.411Z,79.95
2022-11-22T01:11:07.960Z,79.85
2022-11-22T01:13:10.057Z,80.33
2022-11-22T01:15:11.888Z,81.59
2022-11-22T01:17:13.449Z,81.21
2022-11-22T01:19:15.373Z,82.07
2022-11-22T01:21:16.809Z,81.67
2022-11-22T01:23:18.277Z,81.00
2022-11-22T01:25:19.767Z,81.61
2022-11-22T01:27:21.355Z,82.53
2022-11-22T01:29:22.810Z,83.51
2022-11-22T01:31:24.492Z,82.15
2022-11-22T01:33:26.049Z,81.27
2022-11-22T01:35:27.519Z,81.10
2022-11-22T01:37:28.950Z,80.42
2022-11-22T01:39:30.491Z,80.58
2022-11-22T01:41:32.091Z,81.53
2022-11-22T01:43:33.551Z,81.88
2022-11-22T01:45:41.251Z,82.11
2022-11-22T01:47:42.869Z,81.41
2022-11-22T01:50:06.532Z,80.87
2022-11-22T01:52:14.131Z,80.34
2022-11-22T01:54:20.765Z,80.47
2022-11-22T01:56:23.627Z,80.69
2022-11-22T01:58:27.504Z,81.03
2022-11-22T02:00:28.962Z,80.68
2022-11-22T02:02:30.712Z,80.36
2022-11-22T02:04:33.713Z,80.55
2022-11-22T02:07:04.446Z,79.27
2022-11-22T02:09:14.825Z,80.01
2022-11-22T02:11:18.407Z,80.30
2022-11-22T02:13:22.460Z,80.13
2022-11-22T02:15:23.902Z,80.73
2022-11-22T02:17:26.760Z,80.45
2022-11-22T02:19:41.739Z,80.31
2022-11-22T02:21:49.637Z,80.13
2022-11-22T02:24:00.733Z,81.15
2022-11-22T02:26:02.864Z,80.78
2022-11-22T02:28:05.223Z,80.92
2022-11-22T02:30:07.624Z,82.19
2022-11-22T02:32:09.080Z,81.84
2022-11-22T02:34:12.778Z,81.49
2022-11-22T02:36:14.251Z,81.16
2022-11-22T02:38:19.301Z,81.02
2022-11-22T02:40:22.115Z,80.81
2022-11-22T02:42:26.015Z,79.90
2022-11-22T02:44:27.726Z,80.79
2022-11-22T02:46:29.168Z,82.00
2022-11-22T02:48:30.637Z,82.74
2022-11-22T02:50:32.100Z,82.64
2022-11-22T02:52:33.623Z,83.06
2022-11-22T02:54:35.041Z,82.71
2022-11-22T02:56:36.494Z,82.28
2022-11-22T02:58:38.155Z,83.62
2022-11-22T03:00:39.748Z,83.57
2022-11-22T03:02:41.399Z,83.69
2022-11-22T03:04:42.817Z,83.35
2022-11-22T03:06:44.279Z,82.75
2022-11-22T03:08:53.201Z,83.31
2022-11-22T03:10:59.020Z,83.55
2022-11-22T03:13:00.499Z,83.50
2022-11-22T03:15:01.976Z,83.39
2022-11-22T03:17:03.450Z,83.85
2022-11-22T03:19:04.900Z,83.48
2022-11-22T03:21:09.519Z,83.08
2022-11-22T03:23:11.044Z,82.78
2022-11-22T03:25:12.498Z,83.26
2022-11-22T03:27:13.931Z,82.55
2022-11-22T03:29:16.977Z,82.80
2022-11-22T03:31:18.410Z,83.01
2022-11-22T03:33:19.880Z,83.51
2022-11-22T03:35:21.510Z,83.65
2022-11-22T03:37:23.016Z,82.59
2022-11-22T03:39:24.567Z,82.21
2022-11-22T03:41:26.056Z,81.85
2022-11-22T03:43:27.611Z,83.12
2022-11-22T03:45:29.622Z,82.92
2022-11-22T03:47:31.068Z,83.75
2022-11-22T03:49:32.803Z,82.75
2022-11-22T03:51:34.363Z,83.67
2022-11-22T03:53:35.860Z,84.90
2022-11-22T03:55:37.496Z,84.63
2022-11-22T03:57:38.954Z,84.02
2022-11-22T03:59:40.438Z,84.69
2022-11-22T04:01:41.928Z,84.54
2022-11-22T04:03:43.401Z,84.71
2022-11-22T04:05:45.660Z,84.35
2022-11-22T04:07:47.287Z,84.03
2022-11-22T04:09:48.810Z,83.93
2022-11-22T04:11:50.289Z,84.45
2022-11-22T04:14:10.121Z,84.72
2022-11-22T04:16:11.629Z,84.59
2022-11-22T04:18:13.957Z,84.39
2022-11-22T04:20:43.346Z,84.35
2022-11-22T04:22:44.802Z,84.16
2022-11-22T04:25:04.892Z,84.63
2022-11-22T04:27:06.405Z,85.22
2022-11-22T04:29:10.287Z,85.63
2022-11-22T04:31:30.759Z,85.71
2022-11-22T04:33:32.276Z,85.35
2022-11-22T04:35:33.785Z,85.23
2022-11-22T04:37:35.220Z,84.28
2022-11-22T04:39:36.690Z,83.09
2022-11-22T04:41:38.159Z,83.41
2022-11-22T04:43:58.178Z,82.36
2022-11-22T04:45:59.605Z,82.50
2022-11-22T04:48:01.127Z,82.52
2022-11-22T04:50:04.284Z,81.78
2022-11-22T04:52:24.514Z,82.26
2022-11-22T04:54:26.056Z,82.83
2022-11-22T04:56:27.511Z,82.72
2022-11-22T04:58:29.151Z,81.86
2022-11-22T05:00:31.906Z,82.20
2022-11-22T05:02:33.380Z,82.97
2022-11-22T05:04:34.863Z,83.33
2022-11-22T05:06:36.934Z,84.12
2022-11-22T05:08:38.368Z,84.23
2022-11-22T05:10:59.481Z,84.15
2022-11-22T05:13:00.918Z,84.48
2022-11-22T05:15:02.438Z,84.69
2022-11-22T05:17:03.948Z,85.30
2022-11-22T05:19:05.516Z,85.33
2022-11-22T05:21:12.785Z,85.72
2022-11-22T05:23:33.399Z,85.48
2022-11-22T05:25:34.848Z,86.31
2022-11-22T05:27:36.329Z,87.82
2022-11-22T05:29:37.780Z,88.36
2022-11-22T05:31:39.963Z,87.76
2022-11-22T05:33:43.145Z,86.56
2022-11-22T05:35:44.598Z,87.49
2022-11-22T05:37:46.063Z,87.32
2022-11-22T05:39:47.535Z,88.06
2022-11-22T05:41:55.952Z,88.14
2022-11-22T05:43:58.186Z,88.39
2022-11-22T05:46:11.343Z,88.59
2022-11-22T05:48:12.794Z,89.07
2022-11-22T05:50:14.247Z,88.63
2022-11-22T05:52:15.674Z,88.94
2022-11-22T05:54:17.214Z,88.94
2022-11-22T05:56:23.428Z,89.00
2022-11-22T05:58:24.883Z,89.02
2022-11-22T06:00:26.661Z,88.81
2022-11-22T06:02:28.169Z,89.43
2022-11-22T06:04:29.810Z,89.67
2022-11-22T06:06:31.339Z,89.45
2022-11-22T06:08:38.153Z,89.05
2022-11-22T06:10:39.662Z,88.42
2022-11-22T06:12:41.115Z,89.00
2022-11-22T06:14:43.651Z,88.31
2022-11-22T06:16:45.277Z,87.72
2022-11-22T06:18:46.915Z,86.34
2022-11-22T06:20:48.567Z,85.67
2022-11-22T06:22:50.004Z,85.22
2022-11-22T06:24:51.428Z,85.54
2022-11-22T06:26:52.884Z,85.88
2022-11-22T06:28:55.054Z,86.45
2022-11-22T06:31:04.559Z,87.11
2022-11-22T06:33:06.136Z,86.56
2022-11-22T06:35:07.934Z,85.91
2022-11-22T06:37:09.458Z,84.82
2022-11-22T06:39:10.964Z,84.66
2022-11-22T06:41:14.847Z,84.21
2022-11-22T06:43:16.282Z,84.09
2022-11-22T06:45:18.084Z,84.57
2022-11-22T06:47:19.577Z,84.15
2022-11-22T06:49:21.009Z,83.31
2022-11-22T06:51:28.584Z,84.02
2022-11-22T06:53:46.907Z,84.19
2022-11-22T06:55:50.932Z,85.17
2022-11-22T06:57:53.410Z,84.81
2022-11-22T06:59:54.929Z,84.40
2022-11-22T07:01:59.012Z,85.33
2022-11-22T07:04:05.138Z,85.88
2022-11-22T07:06:08.318Z,87.33
2022-11-22T07:08:13.785Z,87.61
2022-11-22T07:10:15.930Z,87.08
2022-11-22T07:12:17.366Z,87.13
2022-11-22T07:14:19.111Z,87.10
2022-11-22T07:16:21.826Z,87.18
2022-11-22T07:18:24.100Z,87.24
2022-11-22T07:20:25.584Z,87.11
2022-11-22T07:22:27.059Z,88.11
2022-11-22T07:24:28.772Z,88.14
2022-11-22T07:26:30.235Z,89.17
2022-11-22T07:28:31.881Z,89.15
2022-11-22T07:30:33.336Z,89.28
2022-11-22T07:32:34.827Z,89.39
2022-11-22T07:34:36.303Z,88.92
2022-11-22T07:36:37.831Z,89.08
2022-11-22T07:38:39.394Z,89.52
2022-11-22T07:40:40.829Z,90.14
2022-11-22T07:42:42.277Z,89.95
2022-11-22T07:44:43.704Z,89.98
2022-11-22T07:46:45.210Z,90.39
2022-11-22T07:48:48.317Z,90.85
2022-11-22T07:50:49.764Z,91.81
2022-11-22T07:52:58.342Z,92.05
2022-11-22T07:54:59.810Z,92.79
2022-11-22T07:57:01.237Z,93.15
2022-11-22T07:59:02.676Z,93.15
2022-11-22T08:01:09.404Z,93.47
2022-11-22T08:03:13.249Z,93.60
2022-11-22T08:05:19.105Z,93.43
2022-11-22T08:07:20.560Z,93.51
2022-11-22T08:09:21.988Z,94.09
2022-11-22T08:11:23.403Z,94.25
2022-11-22T08:13:25.146Z,94.21
2022-11-22T08:15:26.988Z,93.73
2022-11-22T08:17:28.393Z,94.09
2022-11-22T08:19:31.157Z,93.67
2022-11-22T08:21:32.719Z,93.39
2022-11-22T08:23:35.144Z,93.55
2022-11-22T08:25:36.625Z,93.80
2022-11-22T08:27:40.261Z,93.65
2022-11-22T08:29:41.665Z,93.77
2022-11-22T08:31:43.102Z,93.01
2022-11-22T08:33:44.666Z,93.35
2022-11-22T08:35:49.905Z,93.00
2022-11-22T08:37:55.533Z,92.47
2022-11-22T08:39:57.287Z,92.32
2022-11-22T08:41:58.878Z,92.70
2022-11-22T08:44:00.285Z,93.12
2022-11-22T08:46:02.251Z,93.32
2022-11-22T08:48:03.878Z,93.17
2022-11-22T08:50:05.907Z,93.33
2022-11-22T08:52:07.334Z,93.02
2022-11-22T08:54:08.722Z,93.35
2022-11-22T08:56:13.315Z,93.23
2022-11-22T08:58:14.900Z,93.74
2022-11-22T09:00:16.709Z,93.84
2022-11-22T09:02:18.136Z,93.52
2022-11-22T09:04:19.547Z,93.53
2022-11-22T09:08:47.244Z,93.56
2022-11-22T09:10:50.743Z,93.78
2022-11-22T09:12:52.167Z,93.93
2022-11-22T09:14:53.575Z,93.51
2022-11-22T09:16:55.064Z,93.64
2022-11-22T09:18:56.988Z,93.38
2022-11-22T09:21:03.394Z,93.44
2022-11-22T09:23:04.826Z,93.09
2022-11-22T09:25:06.592Z,93.34
2022-11-22T09:27:08.031Z,93.43
2022-11-22T09:29:09.470Z,93.22
2022-11-22T09:31:16.890Z,93.07
2022-11-22T09:33:18.645Z,92.96
2022-11-22T09:35:20.258Z,93.05
2022-11-22T09:37:21.661Z,93.11
2022-11-22T09:39:23.095Z,93.21
2022-11-22T09:41:55.729Z,93.00
2022-11-22T09:44:15.575Z,92.93
2022-11-22T09:46:40.941Z,93.11
2022-11-22T09:48:59.943Z,93.22
2022-11-22T09:51:17.218Z,93.50
2022-11-22T09:53:25.577Z,93.85
2022-11-22T09:55:39.541Z,93.72
2022-11-22T09:57:47.799Z,93.49
2022-11-22T09:59:58.861Z,93.00
2022-11-22T10:02:18.867Z,92.83
2022-11-22T10:04:37.578Z,92.80
2022-11-22T10:06:45.788Z,92.90
2022-11-22T10:08:59.302Z,92.51
2022-11-22T10:11:03.213Z,92.53
2022-11-22T10:13:29.332Z,92.42
2022-11-22T10:15:53.073Z,92.37
2022-11-22T10:17:59.185Z,92.38
2022-11-22T10:20:03.573Z,92.77
2022-11-22T10:22:12.799Z,93.00
2022-11-22T10:24:16.427Z,93.38
2022-11-22T10:26:26.563Z,93.42
2022-11-22T10:28:35.429Z,93.94
2022-11-22T10:30:39.513Z,93.63
2022-11-22T10:33:04.543Z,93.31
2022-11-22T10:35:23.717Z,93.03
2022-11-22T10:37:37.047Z,92.78
2022-11-22T10:40:00.006Z,91.80
2022-11-22T10:42:19.622Z,90.13
2022-11-22T10:44:35.658Z,87.45
2022-11-22T10:46:40.056Z,86.17
2022-11-22T10:48:47.565Z,84.90
2022-11-22T10:51:08.828Z,85.39
2022-11-22T10:53:24.514Z,85.54
2022-11-22T10:55:53.708Z,86.03
2022-11-22T10:58:15.915Z,85.61
2022-11-22T11:00:24.452Z,84.19
2022-11-22T11:02:47.519Z,83.01
2022-11-22T11:04:50.883Z,80.51
2022-11-22T11:07:11.859Z,80.36
2022-11-22T11:10:09.032Z,78.83
2022-11-22T11:11:46.003Z,77.28
2022-11-22T11:13:52.723Z,77.28
2022-11-22T11:15:57.688Z,76.66
2022-11-22T11:18:02.663Z,76.02
2022-11-22T11:20:13.945Z,74.31
2022-11-22T11:22:50.458Z,73.94
2022-11-22T11:24:47.058Z,74.19
2022-11-22T11:26:54.390Z,74.80
2022-11-22T11:29:17.735Z,76.95
2022-11-22T11:31:21.614Z,78.17
2022-11-22T11:33:31.534Z,78.86
2022-11-22T11:35:34.348Z,79.98
2022-11-22T11:37:39.073Z,80.88
2022-11-22T11:39:46.635Z,81.35
2022-11-22T11:41:48.404Z,82.15
2022-11-22T11:43:52.440Z,82.21
2022-11-22T11:45:53.916Z,81.52
2022-11-22T11:47:55.728Z,81.86
2022-11-22T11:49:57.140Z,81.79
2022-11-22T11:52:01.561Z,81.92
2022-11-22T11:54:11.609Z,82.73
2022-11-22T11:56:32.132Z,83.23
2022-11-22T11:58:33.632Z,82.27
2022-11-22T12:00:38.409Z,81.74
2022-11-22T12:02:46.360Z,82.57
2022-11-22T12:04:53.010Z,82.35
2022-11-22T12:07:16.186Z,80.91
2022-11-22T12:09:29.109Z,81.22
2022-11-22T12:11:42.762Z,82.62
2022-11-22T12:14:18.551Z,82.53
2022-11-22T12:16:28.808Z,83.39
2022-11-22T12:18:44.141Z,84.43
2022-11-22T12:21:14.784Z,84.71
2022-11-22T12:23:50.749Z,85.63
2022-11-22T12:25:56.478Z,84.89
2022-11-22T12:28:00.350Z,85.04
2022-11-22T12:30:01.902Z,84.36
2022-11-22T12:32:28.378Z,84.65
2022-11-22T12:34:35.426Z,85.24
2022-11-22T12:36:55.608Z,84.86
2022-11-22T12:39:01.889Z,83.83
2022-11-22T12:41:09.734Z,82.63
2022-11-22T12:43:23.416Z,83.92
2022-11-22T12:45:27.608Z,84.76
2022-11-22T12:47:35.559Z,85.65
2022-11-22T12:49:42.988Z,85.42
2022-11-22T12:51:50.887Z,84.87
2022-11-22T12:53:55.689Z,84.35
2022-11-22T12:56:35.341Z,85.16
2022-11-22T12:59:15.603Z,86.47
2022-11-22T13:01:24.986Z,84.54
2022-11-22T13:03:33.182Z,85.23
2022-11-22T13:05:48.507Z,86.35
2022-11-22T13:07:53.982Z,86.42
2022-11-22T13:10:03.032Z,86.21
2022-11-22T13:12:09.955Z,86.45
2022-11-22T13:14:20.984Z,86.46
2022-11-22T13:16:22.878Z,86.47
2022-11-22T13:18:36.353Z,84.52
2022-11-22T13:20:45.084Z,85.02
2022-11-22T13:23:12.683Z,85.49
2022-11-22T13:25:45.469Z,85.12
2022-11-22T13:27:50.345Z,83.58
2022-11-22T13:29:56.427Z,82.99
2022-11-22T13:32:15.437Z,84.44
2022-11-22T13:34:26.393Z,83.54
2022-11-22T13:36:27.794Z,82.99
2022-11-22T13:38:29.364Z,83.70
2022-11-22T13:40:42.469Z,83.84
2022-11-22T13:42:43.984Z,83.33
2022-11-22T13:44:57.471Z,83.77
2022-11-22T13:47:12.190Z,84.31
2022-11-22T13:49:37.410Z,84.46
2022-11-22T13:51:57.637Z,84.88
2022-11-22T13:54:33.194Z,85.61
2022-11-22T13:56:40.727Z,85.58
2022-11-22T13:58:50.981Z,85.13
2022-11-22T14:00:57.364Z,85.34
2022-11-22T14:03:21.115Z,86.50
2022-11-22T14:05:40.979Z,86.61
2022-11-22T14:07:44.792Z,86.68
2022-11-22T14:09:52.382Z,85.90
2022-11-22T14:11:56.750Z,86.46
2022-11-22T14:14:01.129Z,86.56
2022-11-22T14:16:20.945Z,86.32
2022-11-22T14:18:43.348Z,86.81
2022-11-22T14:21:02.216Z,86.90
2022-11-22T14:23:24.752Z,86.54
2022-11-22T14:25:43.727Z,87.17
2022-11-22T14:28:08.327Z,87.58
2022-11-22T14:30:19.769Z,87.19
2022-11-22T14:32:23.758Z,87.82
2022-11-22T14:34:27.917Z,87.37
2022-11-22T14:36:29.439Z,87.03
2022-11-22T14:38:35.900Z,87.19
2022-11-22T14:40:39.683Z,87.92
2022-11-22T14:42:43.435Z,88.14
2022-11-22T14:44:46.755Z,88.21
2022-11-22T14:47:17.782Z,88.22
2022-11-22T14:49:48.347Z,88.58
2022-11-22T14:51:55.336Z,88.05
2022-11-22T14:54:00.690Z,86.35
2022-11-22T14:56:12.354Z,84.62
2022-11-22T14:58:20.441Z,84.06
2022-11-22T15:00:23.980Z,84.75
2022-11-22T15:03:00.703Z,84.94
2022-11-22T15:09:11.391Z,85.31
2022-11-22T15:09:12.523Z,85.05
2022-11-22T15:10:33.843Z,86.42
2022-11-22T15:12:47.268Z,86.81
2022-11-22T15:57:44.937Z,87.93
2022-11-22T15:59:49.516Z,87.07
2022-11-22T16:01:53.991Z,86.50
2022-11-22T16:03:57.989Z,85.83
2022-11-22T16:06:08.156Z,86.60
2022-11-22T16:08:15.417Z,86.83
2022-11-22T16:10:24.449Z,87.17
2022-11-22T16:12:36.102Z,87.96
2022-11-22T16:14:47.821Z,87.78
2022-11-22T16:16:49.303Z,88.18
2022-11-22T16:18:53.083Z,87.85
2022-11-22T16:21:18.499Z,87.89
2022-11-22T16:23:25.943Z,87.86
2022-11-22T16:25:33.656Z,88.26
2022-11-22T16:27:35.377Z,87.83
2022-11-22T16:29:37.629Z,87.95
2022-11-22T16:31:40.062Z,87.66
2022-11-22T16:33:41.580Z,87.52
2022-11-22T16:35:43.010Z,87.04
2022-11-22T16:37:48.160Z,87.60
2022-11-22T16:39:49.845Z,87.35
2022-11-22T16:41:51.319Z,86.22
2022-11-22T16:44:00.188Z,87.32
2022-11-22T16:46:02.113Z,87.72
2022-11-22T16:48:35.086Z,87.35
2022-11-22T16:50:38.929Z,86.98
2022-11-22T16:52:42.065Z,86.53
2022-11-22T16:54:43.709Z,86.79
2022-11-22T16:56:46.088Z,86.54
2022-11-22T16:58:48.748Z,85.29
2022-11-22T17:00:51.043Z,83.74
2022-11-22T17:02:52.468Z,83.89
2022-11-22T17:04:53.927Z,83.47
2022-11-22T17:06:55.346Z,83.52
2022-11-22T17:08:59.014Z,83.74
2022-11-22T17:11:00.461Z,83.65
2022-11-22T17:13:01.949Z,84.83
2022-11-22T17:15:03.785Z,84.87
2022-11-22T17:17:05.265Z,84.06
2022-11-22T17:19:14.495Z,83.96
2022-11-22T17:21:37.476Z,83.09
2022-11-22T17:23:39.708Z,82.62
2022-11-22T17:25:41.254Z,82.49
2022-11-22T17:27:42.674Z,82.37
2022-11-22T17:29:51.486Z,82.42
2022-11-22T17:31:53.048Z,82.14
2022-11-22T17:33:56.924Z,83.43
2022-11-22T17:35:58.381Z,83.19
2022-11-22T17:37:59.866Z,84.78
2022-11-22T17:40:01.436Z,85.70
2022-11-22T17:42:02.897Z,84.90
2022-11-22T17:44:05.240Z,84.62
2022-11-22T17:46:06.715Z,85.73
2022-11-22T17:48:11.830Z,85.66
2022-11-22T17:50:13.758Z,85.68
2022-11-22T17:52:15.185Z,86.26
2022-11-22T17:54:16.622Z,86.76
2022-11-22T17:56:18.589Z,86.10
2022-11-22T17:58:20.020Z,85.39
2022-11-22T18:00:25.571Z,84.80
2022-11-22T18:02:31.250Z,85.12
2022-11-22T18:04:32.868Z,84.81
2022-11-22T18:06:34.723Z,85.21
2022-11-22T18:08:36.672Z,85.02
2022-11-22T18:10:38.380Z,84.61
2022-11-22T18:12:42.453Z,85.27
2022-11-22T18:14:48.632Z,85.04
2022-11-22T18:16:50.081Z,85.43
2022-11-22T18:18:58.915Z,84.56
2022-11-22T18:21:00.540Z,84.32
2022-11-22T18:23:01.960Z,84.61
2022-11-22T18:25:05.194Z,83.54
2022-11-22T18:27:06.705Z,83.35
2022-11-22T18:31:50.735Z,83.93
2022-11-22T18:33:54.102Z,84.51
2022-11-22T18:36:06.754Z,83.82
2022-11-22T18:38:08.202Z,83.89
2022-11-22T18:40:10.219Z,83.89
2022-11-22T18:42:14.332Z,83.56
2022-11-22T18:44:15.803Z,82.99
2022-11-22T18:46:17.243Z,83.75
2022-11-22T18:48:18.742Z,84.00
2022-11-22T18:50:20.182Z,83.69
2022-11-22T18:52:23.324Z,84.35
2022-11-22T18:54:24.887Z,84.50
2022-11-22T18:56:26.882Z,85.18
2022-11-22T18:58:32.135Z,84.35
2022-11-22T19:00:36.124Z,84.65
2022-11-22T19:02:37.587Z,84.83
2022-11-22T19:04:39.419Z,84.02
2022-11-22T19:06:41.966Z,84.62
2022-11-22T19:08:45.584Z,84.12
2022-11-22T19:10:56.788Z,85.07
2022-11-22T19:12:58.219Z,85.29
2022-11-22T19:14:59.854Z,85.56
2022-11-22T19:17:01.374Z,84.69
2022-11-22T19:19:02.999Z,84.66
2022-11-22T19:21:05.863Z,84.21
2022-11-22T19:23:07.314Z,84.09
2022-11-22T19:25:08.974Z,84.32
2022-11-22T19:27:10.714Z,84.45
2022-11-22T19:29:12.147Z,85.02
2022-11-22T19:31:18.750Z,84.70
2022-11-22T19:33:22.936Z,85.55
2022-11-22T19:35:24.369Z,85.12
2022-11-22T19:37:25.805Z,85.03
2022-11-22T19:39:27.260Z,84.91
2022-11-22T19:41:28.846Z,84.60
2022-11-22T19:43:30.299Z,84.50
2022-11-22T19:45:31.713Z,85.28
2022-11-22T19:47:33.264Z,86.15
2022-11-22T19:49:34.750Z,85.94
2022-11-22T19:51:36.958Z,86.19
2022-11-22T19:53:39.299Z,86.12
2022-11-22T19:55:45.312Z,86.46
2022-11-22T19:57:47.176Z,86.09
2022-11-22T19:59:49.099Z,86.09
2022-11-22T20:01:50.529Z,86.15
2022-11-22T20:03:54.227Z,85.88
2022-11-22T20:05:59.596Z,85.92
2022-11-22T20:08:01.033Z,87.03
2022-11-22T20:10:04.168Z,86.46
2022-11-22T20:12:05.658Z,86.26
2022-11-22T20:14:07.780Z,86.22
2022-11-22T20:16:15.784Z,86.22
2022-11-22T20:18:17.237Z,86.10
2022-11-22T20:20:19.010Z,85.92
2022-11-22T20:22:20.472Z,86.66
2022-11-22T20:24:21.924Z,86.88
2022-11-22T20:26:25.127Z,86.39
2022-11-22T20:28:26.558Z,86.56
2022-11-22T20:30:28.275Z,86.21
2022-11-22T20:32:29.744Z,86.25
2022-11-22T20:34:33.652Z,85.67
2022-11-22T20:36:35.812Z,86.05
2022-11-22T20:38:39.022Z,86.33
2022-11-22T20:40:40.453Z,85.67
2022-11-22T20:42:42.134Z,86.22
2022-11-22T20:44:43.751Z,85.81
2022-11-22T20:46:45.385Z,86.23
2022-11-22T20:48:48.157Z,86.92
2022-11-22T20:50:52.181Z,87.29
2022-11-22T20:52:53.674Z,86.76
2022-11-22T20:54:57.105Z,87.23
2022-11-22T20:57:00.594Z,86.71
2022-11-22T20:59:02.092Z,86.88
2022-11-22T21:01:08.885Z,87.67
2022-11-22T21:03:11.805Z,86.82
2022-11-22T21:05:13.392Z,87.15
2022-11-22T21:07:14.865Z,87.25
2022-11-22T21:09:16.377Z,87.95
2022-11-22T21:11:29.273Z,88.28
2022-11-22T21:13:31.236Z,88.21
2022-11-22T21:15:32.698Z,88.36
2022-11-22T21:17:46.007Z,88.42
2022-11-22T21:19:51.886Z,88.52
2022-11-22T21:21:53.325Z,88.18
2022-11-22T21:23:56.434Z,88.08
2022-11-22T21:25:58.199Z,87.90
2022-11-22T21:27:59.619Z,87.08
2022-11-22T21:30:01.071Z,87.84
2022-11-22T21:32:02.572Z,87.02
2022-11-22T21:34:04.042Z,87.42
2022-11-22T21:36:07.112Z,86.53
2022-11-22T21:38:08.549Z,87.01
2022-11-22T21:40:10.731Z,85.16
2022-11-22T21:42:12.161Z,85.23
2022-11-22T21:44:13.989Z,85.19
2022-11-22T21:46:15.811Z,85.86
2022-11-22T21:48:18.395Z,85.84
2022-11-22T21:50:19.954Z,85.46
2022-11-22T21:52:21.388Z,86.39
2022-11-22T21:54:22.866Z,86.45
2022-11-22T21:56:24.782Z,85.52
2022-11-22T21:58:26.348Z,84.95
2022-11-22T22:00:28.124Z,85.18
2022-11-22T22:02:30.648Z,86.29
2022-11-22T22:04:32.088Z,85.56
2022-11-22T22:06:33.571Z,85.42
2022-11-22T22:08:35.317Z,85.69
2022-11-22T22:10:36.840Z,86.22
2022-11-22T22:12:39.554Z,85.58
2022-11-22T22:14:41.008Z,86.44
2022-11-22T22:16:42.563Z,86.48
2022-11-22T22:18:44.962Z,86.87
2022-11-22T22:20:46.396Z,86.90
2022-11-22T22:22:48.777Z,87.00
2022-11-22T22:24:50.246Z,87.68
2022-11-22T22:26:51.710Z,87.62
2022-11-22T22:28:53.389Z,87.58
2022-11-22T22:31:22.670Z,87.89
2022-11-22T22:33:24.224Z,88.20
2022-11-22T22:35:25.692Z,87.30
2022-11-22T22:37:27.277Z,87.74
2022-11-22T22:39:29.246Z,87.63
2022-11-22T22:41:31.295Z,87.81
2022-11-22T22:43:35.810Z,88.27
2022-11-22T22:45:37.285Z,89.55
2022-11-22T22:47:38.705Z,89.45
2022-11-22T22:49:40.157Z,89.06
2022-11-22T22:51:41.650Z,89.49
2022-11-22T22:53:44.314Z,88.73
2022-11-22T22:55:54.127Z,89.55
2022-11-22T22:57:57.459Z,89.07
2022-11-22T22:59:58.987Z,89.97
2022-11-22T23:02:00.497Z,89.26
2022-11-22T23:04:02.543Z,89.17
2022-11-22T23:06:09.079Z,89.60
2022-11-22T23:08:10.872Z,89.11
2022-11-22T23:10:12.364Z,88.86
2022-11-22T23:12:13.850Z,88.82
2022-11-22T23:14:18.638Z,89.36
2022-11-22T23:16:20.112Z,88.88
2022-11-22T23:18:21.555Z,89.51
2022-11-22T23:20:24.988Z,89.92
2022-11-22T23:22:26.452Z,90.30
2022-11-22T23:24:32.688Z,90.35
2022-11-22T23:26:34.424Z,90.83
2022-11-22T23:28:36.499Z,90.40
2022-11-22T23:30:37.923Z,90.59
2022-11-22T23:32:39.371Z,89.17
2022-11-22T23:34:40.807Z,89.91
2022-11-22T23:36:42.272Z,89.43
2022-11-22T23:38:44.107Z,89.82
2022-11-22T23:40:52.791Z,89.78
2022-11-22T23:42:58.192Z,90.04
2022-11-22T23:44:59.704Z,89.97
2022-11-22T23:47:01.144Z,89.90
2022-11-22T23:49:03.687Z,90.61
2022-11-22T23:51:05.257Z,90.17
2022-11-22T23:53:06.743Z,90.41
2022-11-22T23:55:08.231Z,90.45
2022-11-22T23:57:09.665Z,90.52
2022-11-22T23:59:11.115Z,90.99
